Time;durP1;ratioP1;P1;durP2;ratioP2;P2;SDS_P1;SDS_P2;PMS_P1;PMS_P2;Temp;Humidity;BMP_temperature;BMP_pressure;BME280_temperature;BME280_humidity;BME280_pressure;Samples;Min_cycle;Max_cycle;Signal;HPM_P1;HPM_P2
2021/06/08 00:04:21;;;;;;;9.77;7.73;;;15.30;99.90;;;;;;467146;245;28865;-64
2021/06/08 00:06:22;;;;;;;14.43;12.03;;;15.30;99.90;;;;;;465037;252;28901;-66
2021/06/08 00:08:23;;;;;;;13.20;10.73;;;15.30;99.90;;;;;;465175;252;28844;-65
2021/06/08 00:10:25;;;;;;;10.10;9.10;;;15.30;99.90;;;;;;465196;252;28883;-65
2021/06/08 00:12:26;;;;;;;9.50;8.60;;;15.30;99.90;;;;;;465181;252;28860;-67
2021/06/08 00:14:27;;;;;;;10.40;9.40;;;15.30;99.90;;;;;;464956;252;29324;-66
2021/06/08 00:16:28;;;;;;;9.97;8.17;;;15.30;99.90;;;;;;465110;252;28849;-65
2021/06/08 00:18:30;;;;;;;8.87;8.03;;;15.20;99.90;;;;;;465175;252;29734;-67
2021/06/08 00:20:31;;;;;;;8.20;7.40;;;15.20;99.90;;;;;;465168;252;29311;-66
2021/06/08 00:22:32;;;;;;;10.73;7.50;;;15.20;99.90;;;;;;465171;252;29013;-66
2021/06/08 00:24:33;;;;;;;8.40;7.60;;;15.10;99.90;;;;;;465173;252;28813;-65
2021/06/08 00:26:36;;;;;;;11.57;9.17;;;15.10;99.90;;;;;;467937;253;28922;-66
2021/06/08 00:28:36;;;;;;;8.17;7.40;;;15.10;99.90;;;;;;458698;259;28949;-68
2021/06/08 00:30:37;;;;;;;9.23;8.33;;;15.10;99.90;;;;;;466323;252;28795;-66
2021/06/08 00:32:38;;;;;;;8.57;7.77;;;15.10;99.90;;;;;;465155;253;28834;-66
2021/06/08 00:34:40;;;;;;;9.57;8.63;;;15.10;99.90;;;;;;465191;252;28812;-67
2021/06/08 00:36:41;;;;;;;8.07;7.37;;;15.00;99.90;;;;;;465174;252;28862;-65
2021/06/08 00:38:42;;;;;;;8.50;7.63;;;15.00;99.90;;;;;;465135;252;28870;-67
2021/06/08 00:40:43;;;;;;;18.37;8.20;;;15.00;99.90;;;;;;465168;250;29331;-66
2021/06/08 00:42:45;;;;;;;9.63;8.63;;;14.90;99.90;;;;;;465160;252;29451;-66
2021/06/08 00:44:46;;;;;;;7.77;7.07;;;14.90;99.90;;;;;;465167;253;29274;-65
2021/06/08 00:46:47;;;;;;;10.43;8.50;;;14.90;99.90;;;;;;465166;249;28410;-65
2021/06/08 00:48:48;;;;;;;8.30;7.50;;;14.90;99.90;;;;;;465188;252;28921;-65
2021/06/08 00:50:50;;;;;;;9.60;8.00;;;14.80;99.90;;;;;;465157;252;28819;-66
2021/06/08 00:52:54;;;;;;;10.40;9.17;;;14.80;99.90;;;;;;465177;252;28638;-67
2021/06/08 00:54:52;;;;;;;20.60;14.90;;;14.80;99.90;;;;;;465014;255;28525;-66
2021/06/08 00:56:55;;;;;;;12.43;10.17;;;14.70;99.90;;;;;;465144;252;28504;-66
2021/06/08 00:58:55;;;;;;;16.83;13.40;;;14.80;99.90;;;;;;465118;252;28527;-68
2021/06/08 01:00:56;;;;;;;12.77;10.40;;;14.80;99.90;;;;;;465202;253;30141;-65
2021/06/08 01:02:57;;;;;;;12.30;11.00;;;14.80;99.90;;;;;;465205;252;29097;-66
2021/06/08 01:04:59;;;;;;;14.93;13.30;;;14.80;99.90;;;;;;465198;252;28678;-66
2021/06/08 01:07:00;;;;;;;12.07;10.80;;;14.80;99.90;;;;;;465167;252;28482;-65
2021/06/08 01:09:01;;;;;;;14.23;12.70;;;14.80;99.90;;;;;;465231;249;28425;-67
2021/06/08 01:11:02;;;;;;;11.00;9.40;;;14.80;99.90;;;;;;465131;252;28820;-66
2021/06/08 01:13:04;;;;;;;14.80;12.77;;;14.80;99.90;;;;;;465187;252;28538;-66
2021/06/08 01:15:05;;;;;;;13.80;12.33;;;14.80;99.90;;;;;;465190;252;29831;-66
2021/06/08 01:17:06;;;;;;;12.60;10.50;;;14.80;99.90;;;;;;465214;252;28933;-66
2021/06/08 01:19:07;;;;;;;13.87;11.10;;;14.80;99.90;;;;;;465162;252;28855;-66
2021/06/08 01:21:09;;;;;;;10.97;9.80;;;14.80;99.90;;;;;;465190;252;28377;-65
2021/06/08 01:23:10;;;;;;;12.10;10.53;;;14.80;99.90;;;;;;465168;252;28323;-66
2021/06/08 01:25:11;;;;;;;11.03;9.67;;;14.80;99.90;;;;;;465208;252;28432;-68
2021/06/08 01:27:12;;;;;;;14.53;10.73;;;14.70;99.90;;;;;;465193;252;28809;-66
2021/06/08 01:29:14;;;;;;;11.60;9.80;;;14.70;99.90;;;;;;465171;252;29395;-66
2021/06/08 01:31:15;;;;;;;12.30;10.47;;;14.70;99.90;;;;;;465167;249;29269;-65
2021/06/08 01:33:16;;;;;;;10.97;9.80;;;14.70;99.90;;;;;;465202;252;29267;-65
2021/06/08 01:35:17;;;;;;;11.67;10.40;;;14.70;99.90;;;;;;465190;252;28423;-68
2021/06/08 01:37:19;;;;;;;10.83;9.73;;;14.70;99.90;;;;;;465204;252;28815;-65
2021/06/08 01:39:20;;;;;;;14.57;11.10;;;14.70;99.90;;;;;;465176;250;28434;-66
2021/06/08 01:41:21;;;;;;;12.10;9.80;;;14.60;99.90;;;;;;465188;252;28310;-66
2021/06/08 01:43:22;;;;;;;9.30;8.33;;;14.60;99.90;;;;;;465156;252;28528;-66
2021/06/08 01:45:24;;;;;;;11.43;10.23;;;14.60;99.90;;;;;;465168;252;28543;-67
2021/06/08 01:47:25;;;;;;;11.40;10.20;;;14.50;99.90;;;;;;465186;252;29037;-66
2021/06/08 01:49:26;;;;;;;10.00;9.00;;;14.50;99.90;;;;;;465166;253;29334;-67
2021/06/08 01:51:27;;;;;;;10.40;8.37;;;14.50;99.90;;;;;;465020;252;28910;-65
2021/06/08 01:53:29;;;;;;;10.77;9.67;;;14.50;99.90;;;;;;465153;252;28852;-66
2021/06/08 01:55:31;;;;;;;11.17;9.90;;;14.50;99.90;;;;;;465186;252;28936;-65
2021/06/08 01:57:31;;;;;;;16.57;13.13;;;14.50;99.90;;;;;;465168;252;28952;-66
2021/06/08 01:59:32;;;;;;;12.20;11.03;;;14.50;99.90;;;;;;465188;253;28536;-66
2021/06/08 02:01:34;;;;;;;10.60;9.00;;;14.50;99.90;;;;;;465215;252;28960;-66
2021/06/08 02:03:35;;;;;;;9.27;8.37;;;14.50;99.90;;;;;;465155;252;29346;-66
2021/06/08 02:05:37;;;;;;;10.47;9.37;;;14.50;99.90;;;;;;465161;252;29172;-65
2021/06/08 02:07:40;;;;;;;10.37;9.20;;;14.50;99.90;;;;;;465199;252;28370;-66
2021/06/08 02:09:39;;;;;;;10.40;9.10;;;14.60;99.90;;;;;;465056;255;28935;-67
2021/06/08 02:11:40;;;;;;;14.57;9.60;;;14.60;99.90;;;;;;465181;252;28809;-66
2021/06/08 02:13:41;;;;;;;11.30;9.13;;;14.60;99.90;;;;;;465194;249;28313;-66
2021/06/08 02:15:42;;;;;;;10.40;9.37;;;14.60;99.90;;;;;;465195;253;28383;-66
2021/06/08 02:17:44;;;;;;;10.00;9.00;;;14.70;99.90;;;;;;465182;252;28377;-66
2021/06/08 02:19:45;;;;;;;10.13;9.10;;;14.70;99.90;;;;;;465136;252;28355;-66
2021/06/08 02:21:46;;;;;;;10.40;9.37;;;14.70;99.90;;;;;;465111;254;28856;-65
2021/06/08 02:23:47;;;;;;;10.90;9.90;;;14.60;99.90;;;;;;465191;249;29111;-66
2021/06/08 02:25:50;;;;;;;11.60;10.40;;;14.60;99.90;;;;;;465143;252;28499;-65
2021/06/08 02:27:50;;;;;;;10.93;9.80;;;14.60;99.90;;;;;;465157;252;28456;-66
2021/06/08 02:29:51;;;;;;;10.27;9.27;;;14.60;99.90;;;;;;465130;254;28920;-66
2021/06/08 02:31:53;;;;;;;10.57;8.40;;;14.60;99.90;;;;;;465208;252;28393;-65
2021/06/08 02:33:54;;;;;;;12.00;9.50;;;14.60;99.90;;;;;;465172;252;28549;-65
2021/06/08 02:35:55;;;;;;;10.17;9.17;;;14.60;99.90;;;;;;465174;252;28393;-67
2021/06/08 02:37:56;;;;;;;11.13;10.03;;;14.60;99.90;;;;;;465195;252;28761;-66
2021/06/08 02:39:58;;;;;;;9.43;8.47;;;14.60;99.90;;;;;;465186;252;29396;-66
2021/06/08 02:41:59;;;;;;;10.30;9.30;;;14.60;99.90;;;;;;465205;252;29027;-65
2021/06/08 02:44:00;;;;;;;11.03;9.83;;;14.60;99.90;;;;;;465190;253;28836;-66
2021/06/08 02:46:02;;;;;;;10.27;9.27;;;14.60;99.90;;;;;;465200;252;28517;-67
2021/06/08 02:48:03;;;;;;;10.60;9.50;;;14.70;99.90;;;;;;465159;253;28485;-66
2021/06/08 02:50:04;;;;;;;10.63;9.03;;;14.70;99.90;;;;;;465157;252;28861;-66
2021/06/08 02:52:05;;;;;;;11.27;10.07;;;14.70;99.90;;;;;;465155;252;28565;-65
2021/06/08 02:54:06;;;;;;;10.27;9.10;;;14.70;99.90;;;;;;465066;252;28481;-65
2021/06/08 02:56:08;;;;;;;9.80;8.87;;;14.70;99.90;;;;;;465148;252;29451;-65
2021/06/08 02:58:09;;;;;;;10.30;8.97;;;14.70;99.90;;;;;;465182;250;29341;-65
2021/06/08 03:00:10;;;;;;;11.30;9.83;;;14.70;99.90;;;;;;465194;252;29405;-67
2021/06/08 03:02:11;;;;;;;10.60;9.50;;;14.70;99.90;;;;;;465187;252;28920;-65
2021/06/08 03:04:13;;;;;;;10.30;9.30;;;14.70;99.90;;;;;;465169;249;28538;-65
2021/06/08 03:06:14;;;;;;;10.00;9.00;;;14.70;99.90;;;;;;465131;254;28615;-65
2021/06/08 03:08:15;;;;;;;10.40;8.50;;;14.70;99.90;;;;;;465179;252;28528;-65
2021/06/08 03:10:16;;;;;;;10.50;9.40;;;14.70;99.90;;;;;;465180;252;28865;-66
2021/06/08 03:12:18;;;;;;;12.13;10.50;;;14.70;99.90;;;;;;465201;252;28895;-65
2021/06/08 03:14:19;;;;;;;15.23;12.43;;;14.70;99.90;;;;;;465176;252;29319;-66
2021/06/08 03:16:20;;;;;;;13.60;11.30;;;14.70;99.90;;;;;;465173;249;30190;-65
2021/06/08 03:18:21;;;;;;;13.90;11.80;;;14.70;99.90;;;;;;465122;253;28825;-66
2021/06/08 03:20:23;;;;;;;14.70;13.20;;;14.70;99.90;;;;;;465049;252;28844;-66
2021/06/08 03:22:24;;;;;;;20.27;16.90;;;14.70;99.90;;;;;;465128;252;28913;-65
2021/06/08 03:24:25;;;;;;;17.77;13.10;;;14.70;99.90;;;;;;465062;252;28453;-65
2021/06/08 03:26:26;;;;;;;14.30;12.30;;;14.70;99.90;;;;;;465100;250;28650;-65
2021/06/08 03:28:28;;;;;;;14.43;12.40;;;14.80;99.90;;;;;;465115;252;29047;-65
2021/06/08 03:30:29;;;;;;;13.67;12.23;;;14.80;99.90;;;;;;465023;252;29307;-66
2021/06/08 03:32:30;;;;;;;13.30;11.90;;;14.80;99.90;;;;;;465100;253;28492;-65
2021/06/08 03:34:31;;;;;;;13.40;11.97;;;14.80;99.90;;;;;;465118;253;28535;-67
2021/06/08 03:36:33;;;;;;;16.60;12.67;;;14.80;99.90;;;;;;465147;252;28610;-65
2021/06/08 03:38:34;;;;;;;13.70;11.90;;;14.80;99.90;;;;;;465191;252;28881;-65
2021/06/08 03:40:35;;;;;;;16.63;12.70;;;14.80;99.90;;;;;;465138;252;28511;-66
2021/06/08 03:42:39;;;;;;;12.53;10.10;;;14.70;99.90;;;;;;465173;252;29339;-65
2021/06/08 03:44:38;;;;;;;12.10;10.80;;;14.70;99.90;;;;;;465084;254;29372;-66
2021/06/08 03:46:39;;;;;;;16.33;12.20;;;14.70;99.90;;;;;;465214;252;28369;-65
2021/06/08 03:48:40;;;;;;;16.30;12.87;;;14.80;99.90;;;;;;465155;252;28370;-66
2021/06/08 03:50:42;;;;;;;12.27;10.97;;;14.80;99.90;;;;;;465172;252;28531;-66
2021/06/08 03:52:43;;;;;;;13.77;11.50;;;14.80;99.90;;;;;;465162;252;28834;-65
2021/06/08 03:54:44;;;;;;;14.00;11.27;;;14.80;99.90;;;;;;465206;252;28850;-66
2021/06/08 03:56:45;;;;;;;13.73;11.90;;;14.80;99.90;;;;;;465192;252;30068;-65
2021/06/08 03:58:47;;;;;;;12.13;10.63;;;14.80;99.90;;;;;;465165;252;28916;-65
2021/06/08 04:00:48;;;;;;;13.10;11.70;;;14.80;99.90;;;;;;465193;252;28855;-66
2021/06/08 04:02:49;;;;;;;14.20;9.67;;;14.80;99.90;;;;;;465185;252;28572;-66
2021/06/08 04:04:50;;;;;;;10.10;9.10;;;14.80;99.90;;;;;;465162;253;28849;-65
2021/06/08 04:06:52;;;;;;;13.07;11.67;;;14.80;99.90;;;;;;465156;252;28913;-65
2021/06/08 04:08:53;;;;;;;13.00;9.87;;;14.80;99.90;;;;;;465157;255;28489;-65
2021/06/08 04:10:54;;;;;;;12.40;10.30;;;14.80;99.90;;;;;;465180;252;28856;-65
2021/06/08 04:12:55;;;;;;;12.63;10.53;;;14.80;99.90;;;;;;465175;250;29353;-65
2021/06/08 04:14:57;;;;;;;12.07;10.77;;;14.70;99.90;;;;;;465112;253;29321;-65
2021/06/08 04:16:58;;;;;;;13.40;11.37;;;14.70;99.90;;;;;;465181;252;28854;-67
2021/06/08 04:18:59;;;;;;;14.43;11.47;;;14.70;99.90;;;;;;465111;252;28811;-65
2021/06/08 04:21:00;;;;;;;11.87;9.97;;;14.80;99.90;;;;;;465191;252;28939;-65
2021/06/08 04:23:02;;;;;;;11.43;10.27;;;14.80;99.90;;;;;;465164;252;28874;-65
2021/06/08 04:25:03;;;;;;;13.03;10.30;;;14.80;99.90;;;;;;465099;253;28902;-64
2021/06/08 04:27:04;;;;;;;11.93;10.73;;;14.90;99.90;;;;;;465160;250;29333;-67
2021/06/08 04:29:05;;;;;;;12.13;10.53;;;14.90;99.90;;;;;;465168;252;29277;-65
2021/06/08 04:31:07;;;;;;;13.63;10.73;;;14.90;99.90;;;;;;465169;252;28839;-65
2021/06/08 04:33:08;;;;;;;11.87;10.20;;;15.00;99.90;;;;;;465193;252;28781;-65
2021/06/08 04:35:09;;;;;;;13.10;10.20;;;15.00;99.90;;;;;;465177;252;28862;-65
2021/06/08 04:37:10;;;;;;;20.10;10.30;;;15.00;99.90;;;;;;465210;252;28702;-66
2021/06/08 04:39:12;;;;;;;11.07;9.93;;;15.00;99.90;;;;;;465151;252;28844;-66
2021/06/08 04:41:13;;;;;;;10.50;9.40;;;15.10;99.90;;;;;;465173;252;29340;-65
2021/06/08 04:43:14;;;;;;;13.30;11.23;;;15.10;99.90;;;;;;465169;252;29280;-65
2021/06/08 04:45:16;;;;;;;16.67;12.77;;;15.20;99.90;;;;;;465199;252;29246;-65
2021/06/08 04:47:17;;;;;;;13.27;11.87;;;15.20;99.90;;;;;;465188;252;28909;-66
2021/06/08 04:49:18;;;;;;;13.13;11.53;;;15.20;99.90;;;;;;465193;249;28870;-66
2021/06/08 04:51:20;;;;;;;14.83;13.13;;;15.20;99.90;;;;;;465169;252;28826;-66
2021/06/08 04:53:20;;;;;;;11.67;10.20;;;15.30;99.90;;;;;;465168;252;28803;-65
2021/06/08 04:55:23;;;;;;;11.63;10.47;;;15.30;99.90;;;;;;465202;252;28952;-65
2021/06/08 04:57:23;;;;;;;12.73;10.57;;;15.30;99.90;;;;;;465153;252;29306;-67
2021/06/08 04:59:24;;;;;;;12.20;10.57;;;15.30;99.90;;;;;;465130;252;29377;-65
2021/06/08 05:01:26;;;;;;;12.20;10.93;;;15.40;99.90;;;;;;465149;252;28851;-65
2021/06/08 05:03:27;;;;;;;14.07;11.20;;;15.40;99.90;;;;;;465063;252;28854;-67
2021/06/08 05:05:29;;;;;;;15.17;13.00;;;15.40;99.90;;;;;;465017;252;28887;-66
2021/06/08 05:07:30;;;;;;;14.70;12.73;;;15.40;99.90;;;;;;464971;252;28913;-65
2021/06/08 05:09:31;;;;;;;15.43;13.83;;;15.50;99.90;;;;;;464916;253;29015;-65
2021/06/08 05:11:32;;;;;;;17.20;14.10;;;15.50;99.90;;;;;;465083;253;29317;-64
2021/06/08 05:13:33;;;;;;;13.50;12.10;;;15.50;99.90;;;;;;465192;252;29315;-66
2021/06/08 05:15:34;;;;;;;15.80;13.33;;;15.50;99.90;;;;;;465206;252;28876;-66
2021/06/08 05:17:36;;;;;;;16.30;14.60;;;15.50;99.90;;;;;;465175;252;28917;-65
2021/06/08 05:19:37;;;;;;;14.83;12.40;;;15.60;99.90;;;;;;465148;252;28830;-65
2021/06/08 05:21:38;;;;;;;13.27;11.20;;;15.60;99.90;;;;;;465190;252;28871;-65
2021/06/08 05:23:39;;;;;;;13.50;12.10;;;15.50;99.90;;;;;;465180;253;28826;-66
2021/06/08 05:25:42;;;;;;;16.87;12.10;;;15.50;99.90;;;;;;465143;252;29447;-65
2021/06/08 05:27:42;;;;;;;16.50;13.50;;;15.50;99.90;;;;;;465191;252;29405;-65
2021/06/08 05:29:43;;;;;;;15.13;13.50;;;15.50;99.90;;;;;;465172;248;28833;-68
2021/06/08 05:31:44;;;;;;;17.60;12.83;;;15.50;99.90;;;;;;465174;252;28928;-65
2021/06/08 05:33:46;;;;;;;15.87;14.17;;;15.50;99.90;;;;;;465192;252;28891;-65
2021/06/08 05:35:47;;;;;;;16.00;13.33;;;15.50;99.90;;;;;;465185;252;28821;-65
2021/06/08 05:37:48;;;;;;;14.93;13.37;;;15.50;99.90;;;;;;465153;252;28837;-65
2021/06/08 05:39:49;;;;;;;16.97;14.33;;;15.50;99.90;;;;;;465159;252;29380;-67
2021/06/08 05:41:51;;;;;;;14.80;13.20;;;15.60;99.90;;;;;;465203;249;29266;-65
2021/06/08 05:43:52;;;;;;;16.87;15.03;;;15.60;99.90;;;;;;466008;248;28825;-65
2021/06/08 05:45:53;;;;;;;20.50;15.30;;;15.60;99.90;;;;;;464247;248;28791;-65
2021/06/08 05:47:54;;;;;;;18.00;15.33;;;15.60;99.90;;;;;;463925;251;28927;-65
2021/06/08 05:49:57;;;;;;;16.27;14.27;;;15.50;99.90;;;;;;463937;255;28817;-67
2021/06/08 05:51:59;;;;;;;15.53;13.90;;;15.60;99.90;;;;;;458899;256;29020;-65
2021/06/08 05:53:59;;;;;;;16.30;13.70;;;15.60;99.90;;;;;;463929;256;29324;-66
2021/06/08 05:56:01;;;;;;;26.60;20.37;;;15.70;99.90;;;;;;463939;255;29301;-66
2021/06/08 05:58:03;;;;;;;20.67;18.00;;;15.70;99.90;;;;;;463956;255;28829;-65
2021/06/08 06:00:04;;;;;;;18.30;14.90;;;15.70;99.90;;;;;;458856;259;28992;-66
2021/06/08 06:02:04;;;;;;;19.07;15.50;;;15.80;99.90;;;;;;463843;256;28797;-66
2021/06/08 06:04:06;;;;;;;16.80;14.27;;;15.80;99.90;;;;;;463976;255;28876;-65
2021/06/08 06:06:07;;;;;;;21.33;17.70;;;15.90;99.90;;;;;;458934;259;29088;-66
2021/06/08 06:08:08;;;;;;;19.47;15.87;;;15.80;99.90;;;;;;463976;256;29297;-68
2021/06/08 06:10:09;;;;;;;19.13;15.17;;;15.90;99.90;;;;;;463985;255;29340;-64
2021/06/08 06:12:11;;;;;;;20.47;17.00;;;15.90;99.90;;;;;;458898;259;29003;-66
2021/06/08 06:14:12;;;;;;;16.30;14.60;;;16.10;99.90;;;;;;463918;256;28817;-65
2021/06/08 06:16:13;;;;;;;22.07;17.60;;;16.00;99.90;;;;;;463950;255;28896;-66
2021/06/08 06:18:14;;;;;;;17.77;15.77;;;16.00;99.90;;;;;;458866;255;29596;-70
2021/06/08 06:20:16;;;;;;;20.50;17.20;;;16.10;99.90;;;;;;465469;252;29196;-65
2021/06/08 06:22:17;;;;;;;18.33;16.13;;;16.10;99.90;;;;;;472229;252;28770;-67
2021/06/08 06:24:18;;;;;;;24.90;19.63;;;16.20;99.90;;;;;;472235;252;28730;-66
2021/06/08 06:26:19;;;;;;;27.03;20.47;;;16.10;99.90;;;;;;475280;248;28841;-66
2021/06/08 06:28:21;;;;;;;21.43;17.40;;;16.00;99.90;;;;;;458935;254;29410;-68
2021/06/08 06:30:22;;;;;;;28.10;20.20;;;16.10;99.90;;;;;;460023;258;28916;-66
2021/06/08 06:32:23;;;;;;;18.40;15.57;;;16.20;99.90;;;;;;458351;254;28974;-66
2021/06/08 06:34:25;;;;;;;17.27;15.30;;;16.20;99.90;;;;;;473567;251;28896;-65
2021/06/08 06:36:26;;;;;;;18.07;15.93;;;16.30;99.90;;;;;;473562;250;28995;-66
2021/06/08 06:38:27;;;;;;;18.20;15.30;;;16.30;99.90;;;;;;473566;250;29506;-67
2021/06/08 06:40:29;;;;;;;18.47;15.23;;;16.30;99.90;;;;;;469404;250;29407;-65
2021/06/08 06:42:30;;;;;;;19.13;17.10;;;16.40;99.90;;;;;;455855;255;28877;-66
2021/06/08 06:44:31;;;;;;;25.63;20.03;;;16.30;99.90;;;;;;464204;248;28773;-66
2021/06/08 06:46:32;;;;;;;21.50;18.57;;;16.20;99.90;;;;;;458961;258;28936;-66
2021/06/08 06:48:33;;;;;;;19.37;16.70;;;16.10;99.90;;;;;;471559;248;28942;-67
2021/06/08 06:50:35;;;;;;;24.90;18.10;;;16.10;99.90;;;;;;469591;248;28864;-65
2021/06/08 06:52:36;;;;;;;19.37;15.13;;;16.20;99.90;;;;;;463913;255;28835;-66
2021/06/08 06:54:37;;;;;;;23.00;17.23;;;16.30;99.90;;;;;;463949;255;29359;-66
2021/06/08 06:56:38;;;;;;;22.20;16.50;;;16.30;99.90;;;;;;460031;258;29357;-66
2021/06/08 06:58:41;;;;;;;24.80;21.17;;;16.30;99.90;;;;;;457901;259;28860;-67
2021/06/08 07:00:41;;;;;;;21.80;19.23;;;16.10;99.90;;;;;;457757;260;28946;-65
2021/06/08 07:02:42;;;;;;;24.57;20.70;;;16.00;99.90;;;;;;457854;258;28960;-66
2021/06/08 07:04:43;;;;;;;20.37;18.03;;;16.10;99.90;;;;;;457807;258;28909;-65
2021/06/08 07:06:45;;;;;;;22.77;19.33;;;16.20;99.90;;;;;;457683;254;28824;-66
2021/06/08 07:08:46;;;;;;;22.23;19.07;;;16.30;99.90;;;;;;456816;258;29497;-67
2021/06/08 07:10:47;;;;;;;21.40;18.37;;;16.30;99.90;;;;;;456804;258;29429;-65
2021/06/08 07:12:48;;;;;;;21.33;19.13;;;16.30;99.90;;;;;;456566;258;29024;-67
2021/06/08 07:14:50;;;;;;;20.53;17.37;;;16.30;99.90;;;;;;456594;258;29016;-66
2021/06/08 07:16:53;;;;;;;23.10;18.00;;;16.30;99.90;;;;;;456505;258;29041;-65
2021/06/08 07:18:52;;;;;;;16.27;14.00;;;16.30;99.90;;;;;;456442;260;29061;-66
2021/06/08 07:20:53;;;;;;;20.73;16.60;;;16.50;99.90;;;;;;456733;258;28982;-66
2021/06/08 07:22:57;;;;;;;21.43;18.73;;;16.60;99.90;;;;;;456712;258;29496;-66
2021/06/08 07:24:56;;;;;;;17.53;15.37;;;16.50;99.90;;;;;;456622;260;29571;-67
2021/06/08 07:26:58;;;;;;;17.00;15.20;;;16.60;99.90;;;;;;456727;258;28997;-66
2021/06/08 07:28:58;;;;;;;16.13;14.40;;;16.70;99.90;;;;;;456762;260;29080;-66
2021/06/08 07:31:03;;;;;;;17.53;14.53;;;16.90;99.90;;;;;;456874;258;29015;-65
2021/06/08 07:33:04;;;;;;;20.30;17.63;;;17.00;99.90;;;;;;456869;258;29423;-66
2021/06/08 07:35:05;;;;;;;24.77;20.33;;;17.10;99.90;;;;;;456868;258;29566;-65
2021/06/08 07:37:07;;;;;;;24.00;20.40;;;16.90;99.90;;;;;;456851;258;29017;-68
2021/06/08 07:39:07;;;;;;;22.33;18.87;;;16.80;99.90;;;;;;456853;258;29031;-65
2021/06/08 07:41:09;;;;;;;21.63;17.93;;;16.70;99.90;;;;;;456884;258;29029;-65
2021/06/08 07:43:10;;;;;;;23.20;18.50;;;16.70;99.90;;;;;;456853;258;29070;-65
2021/06/08 07:45:11;;;;;;;22.67;18.07;;;16.60;99.90;;;;;;456879;258;29035;-65
2021/06/08 07:47:12;;;;;;;20.37;16.67;;;16.70;99.90;;;;;;456842;258;29501;-67
2021/06/08 07:49:14;;;;;;;20.90;16.90;;;16.80;99.90;;;;;;456899;258;29420;-65
2021/06/08 07:51:15;;;;;;;23.13;19.43;;;16.90;99.90;;;;;;456861;258;29006;-66
2021/06/08 07:53:16;;;;;;;21.00;17.47;;;16.80;99.90;;;;;;456874;258;29081;-65
2021/06/08 07:55:19;;;;;;;20.67;17.97;;;16.70;99.90;;;;;;456896;258;28973;-65
2021/06/08 07:57:19;;;;;;;24.10;18.80;;;16.90;99.90;;;;;;456793;260;29009;-66
2021/06/08 07:59:20;;;;;;;20.33;15.53;;;16.90;99.90;;;;;;456903;258;29054;-66
2021/06/08 08:01:21;;;;;;;19.97;17.30;;;16.90;99.90;;;;;;456821;258;29475;-65
2021/06/08 08:03:28;;;;;;;23.10;17.73;;;17.00;99.90;;;;;;456761;258;29605;-66
2021/06/08 08:05:26;;;;;;;21.07;14.97;;;17.20;99.90;;;;;;456602;260;29055;-65
2021/06/08 08:07:28;;;;;;;17.00;15.20;;;17.20;99.90;;;;;;456825;258;29093;-66
2021/06/08 08:09:30;;;;;;;17.77;14.70;;;17.20;99.90;;;;;;456889;258;29076;-67
2021/06/08 08:11:30;;;;;;;21.90;18.20;;;17.30;99.90;;;;;;456837;258;29501;-66
2021/06/08 08:13:32;;;;;;;20.27;16.40;;;17.40;99.90;;;;;;456863;258;29576;-66
2021/06/08 08:15:33;;;;;;;20.17;16.17;;;17.40;99.90;;;;;;456876;258;28999;-65
2021/06/08 08:17:34;;;;;;;19.03;17.03;;;17.50;99.90;;;;;;456853;258;28964;-65
2021/06/08 08:19:35;;;;;;;22.53;18.40;;;17.40;99.90;;;;;;456840;258;29123;-67
2021/06/08 08:21:37;;;;;;;23.63;19.00;;;17.20;99.90;;;;;;456843;258;28982;-66
2021/06/08 08:23:38;;;;;;;21.40;18.50;;;17.10;99.90;;;;;;456850;258;29092;-66
2021/06/08 08:25:39;;;;;;;15.57;13.93;;;17.10;99.90;;;;;;456881;258;30233;-66
2021/06/08 08:27:40;;;;;;;20.03;18.03;;;17.40;99.90;;;;;;456844;258;29594;-66
2021/06/08 08:29:43;;;;;;;20.90;17.40;;;17.30;99.90;;;;;;456866;258;29009;-68
2021/06/08 08:31:43;;;;;;;22.60;19.20;;;17.20;99.90;;;;;;456832;258;29009;-66
2021/06/08 08:33:44;;;;;;;17.00;14.30;;;17.20;99.90;;;;;;456794;258;29001;-67
2021/06/08 08:35:45;;;;;;;16.13;14.00;;;17.30;99.90;;;;;;456884;258;28962;-65
2021/06/08 08:37:47;;;;;;;18.53;14.80;;;17.70;99.90;;;;;;456819;258;28968;-66
2021/06/08 08:39:49;;;;;;;20.97;15.93;;;17.90;99.90;;;;;;456862;258;29480;-67
2021/06/08 08:41:49;;;;;;;16.80;13.80;;;17.90;99.90;;;;;;456759;260;29519;-66
2021/06/08 08:43:50;;;;;;;19.47;16.67;;;18.00;99.90;;;;;;456841;258;29005;-66
2021/06/08 08:45:52;;;;;;;15.03;13.43;;;17.80;99.90;;;;;;456850;258;29003;-66
2021/06/08 08:47:54;;;;;;;18.37;15.17;;;17.90;99.90;;;;;;456843;258;29014;-66
2021/06/08 08:49:54;;;;;;;14.60;13.10;;;18.00;99.90;;;;;;456814;258;29015;-66
2021/06/08 08:51:55;;;;;;;18.73;16.33;;;18.20;99.90;;;;;;456855;258;29070;-66
2021/06/08 08:53:57;;;;;;;20.47;16.40;;;18.20;99.90;;;;;;456821;258;29548;-66
2021/06/08 08:55:58;;;;;;;15.20;13.60;;;18.20;99.90;;;;;;456848;258;29713;-68
2021/06/08 08:57:59;;;;;;;13.63;12.33;;;18.40;99.90;;;;;;456802;258;29073;-67
2021/06/08 09:00:03;;;;;;;20.47;17.57;;;18.70;99.90;;;;;;456872;258;29000;-66
2021/06/08 09:02:02;;;;;;;16.27;13.40;;;18.60;99.90;;;;;;456757;258;28990;-66
2021/06/08 09:04:03;;;;;;;17.17;15.37;;;18.90;99.90;;;;;;456845;258;29192;-66
2021/06/08 09:06:04;;;;;;;16.90;15.20;;;18.80;99.90;;;;;;456879;258;29101;-67
2021/06/08 09:08:05;;;;;;;15.30;13.50;;;18.70;99.90;;;;;;456842;258;29421;-67
2021/06/08 09:10:11;;;;;;;14.63;13.10;;;19.00;99.90;;;;;;456832;258;29476;-66
2021/06/08 09:12:11;;;;;;;15.33;13.73;;;19.30;99.90;;;;;;456755;260;29022;-66
2021/06/08 09:14:12;;;;;;;13.70;12.37;;;19.40;99.90;;;;;;456839;258;28968;-66
2021/06/08 09:16:16;;;;;;;17.67;15.87;;;19.30;99.90;;;;;;456821;258;29012;-66
2021/06/08 09:18:20;;;;;;;18.17;15.30;;;19.30;99.90;;;;;;457007;254;29775;-67
2021/06/08 09:20:20;;;;;;;16.60;14.13;;;19.10;99.90;;;;;;457622;254;28934;-67
2021/06/08 09:22:21;;;;;;;18.30;16.10;;;19.00;99.90;;;;;;456866;258;29499;-67
2021/06/08 09:24:22;;;;;;;17.83;14.80;;;19.10;99.90;;;;;;456819;258;29410;-66
2021/06/08 09:26:24;;;;;;;19.27;16.90;;;19.20;99.90;;;;;;456784;258;29041;-67
2021/06/08 09:28:25;;;;;;;18.40;15.27;;;19.10;99.90;;;;;;456750;258;29116;-68
2021/06/08 09:30:26;;;;;;;18.60;15.10;;;19.10;99.90;;;;;;456894;258;28980;-66
2021/06/08 09:32:28;;;;;;;21.33;15.93;;;19.10;99.90;;;;;;456789;258;29028;-66
2021/06/08 09:34:29;;;;;;;17.27;14.37;;;19.10;99.90;;;;;;456730;260;29045;-66
2021/06/08 09:36:30;;;;;;;19.57;17.50;;;19.20;99.90;;;;;;456789;258;29622;-66
2021/06/08 09:38:31;;;;;;;19.13;17.13;;;19.10;99.90;;;;;;456832;258;29489;-68
2021/06/08 09:40:35;;;;;;;20.90;13.97;;;19.20;99.90;;;;;;456804;258;29004;-66
2021/06/08 09:42:34;;;;;;;15.40;13.80;;;19.30;99.90;;;;;;456636;260;29027;-67
2021/06/08 09:44:35;;;;;;;16.53;14.80;;;19.60;99.90;;;;;;456813;258;29112;-66
2021/06/08 09:46:36;;;;;;;17.20;15.50;;;19.80;99.90;;;;;;456861;258;29000;-66
2021/06/08 09:48:37;;;;;;;15.43;13.23;;;19.90;99.90;;;;;;456819;258;29016;-67
2021/06/08 09:50:39;;;;;;;14.40;13.00;;;19.90;99.90;;;;;;456846;258;29442;-66
2021/06/08 09:52:40;;;;;;;13.77;12.37;;;20.00;99.90;;;;;;456841;258;29645;-66
2021/06/08 09:54:41;;;;;;;13.27;11.97;;;20.20;99.90;;;;;;456861;258;29149;-68
2021/06/08 09:56:42;;;;;;;12.40;11.20;;;20.20;99.90;;;;;;456842;258;29047;-66
2021/06/08 09:58:44;;;;;;;17.20;14.33;;;20.20;99.90;;;;;;456821;258;29017;-67
2021/06/08 10:00:45;;;;;;;15.90;14.30;;;20.10;99.90;;;;;;456843;258;29001;-66
2021/06/08 10:02:50;;;;;;;18.30;14.60;;;20.10;99.90;;;;;;456820;258;29006;-67
2021/06/08 10:04:50;;;;;;;16.90;15.13;;;19.90;99.90;;;;;;456831;258;29563;-67
2021/06/08 10:06:51;;;;;;;23.67;14.20;;;19.90;99.90;;;;;;456846;258;29568;-67
2021/06/08 10:08:53;;;;;;;13.40;12.10;;;20.00;99.90;;;;;;456834;258;28991;-64
2021/06/08 10:10:58;;;;;;;20.67;15.80;;;20.20;99.90;;;;;;456841;258;29030;-67
2021/06/08 10:12:55;;;;;;;19.37;16.10;;;20.10;99.90;;;;;;456559;260;29075;-66
2021/06/08 10:14:56;;;;;;;15.73;14.00;;;19.70;99.90;;;;;;456789;258;29007;-67
2021/06/08 10:16:58;;;;;;;15.50;12.80;;;20.00;99.90;;;;;;456763;258;29354;-69
2021/06/08 10:18:59;;;;;;;16.90;13.90;;;20.40;99.90;;;;;;465670;254;29232;-67
2021/06/08 10:21:00;;;;;;;14.03;12.60;;;20.70;99.90;;;;;;467213;254;29609;-67